Time;durP1;ratioP1;P1;durP2;ratioP2;P2;SDS_P1;SDS_P2;PMS_P1;PMS_P2;Temp;Humidity;BMP_temperature;BMP_pressure;BME280_temperature;BME280_humidity;BME280_pressure;Samples;Min_cycle;Max_cycle;Signal;HPM_P1;HPM_P2
2022/06/05 00:00:06;;;;;;;4.15;1.80;;;;;;;;;;5002199;28;20037;-80
2022/06/05 00:02:37;;;;;;;3.00;1.63;;;;;;;;;;5001872;28;20065;-77
2022/06/05 00:05:10;;;;;;;4.40;1.80;;;;;;;;;;5016356;28;20112;-78
2022/06/05 00:07:48;;;;;;;4.60;1.65;;;;;;;;;;5023000;28;20477;-77
2022/06/05 00:10:18;;;;;;;3.58;1.88;;;;;;;;;;5014637;28;20041;-78
2022/06/05 00:12:59;;;;;;;3.63;2.03;;;;;;;;;;5002282;28;20509;-78
2022/06/05 00:15:25;;;;;;;5.07;2.15;;;;;;;;;;5008726;28;20040;-77
2022/06/05 00:17:50;;;;;;;3.58;1.90;;;;;;;;;;5023080;28;20037;-78
2022/06/05 00:20:16;;;;;;;5.47;1.88;;;;;;;;;;5021586;28;20400;-77
2022/06/05 00:22:41;;;;;;;4.53;2.20;;;;;;;;;;5017151;28;20408;-78
2022/06/05 00:25:08;;;;;;;3.63;1.80;;;;;;;;;;5010142;28;20043;-78
2022/06/05 00:27:48;;;;;;;6.25;2.47;;;;;;;;;;5004783;28;20485;-78
2022/06/05 00:30:52;;;;;;;3.42;1.60;;;;;;;;;;5018159;28;20561;-78
2022/06/05 00:33:32;;;;;;;4.10;2.20;;;;;;;;;;5002938;28;20034;-78
2022/06/05 00:36:02;;;;;;;5.25;1.80;;;;;;;;;;5034404;28;20049;-78
2022/06/05 00:38:43;;;;;;;5.07;1.92;;;;;;;;;;5018768;28;20077;-78
2022/06/05 00:41:26;;;;;;;3.97;2.00;;;;;;;;;;4993105;28;20543;-78
2022/06/05 00:44:02;;;;;;;3.95;2.33;;;;;;;;;;5034987;28;20041;-78
2022/06/05 00:46:31;;;;;;;4.90;2.10;;;;;;;;;;5021331;28;20037;-78
2022/06/05 00:48:56;;;;;;;6.43;2.28;;;;;;;;;;5005061;28;20120;-78
2022/06/05 00:51:22;;;;;;;4.28;2.30;;;;;;;;;;5019305;28;20062;-78
2022/06/05 00:53:49;;;;;;;5.70;2.38;;;;;;;;;;5013981;28;20036;-79
2022/06/05 00:56:21;;;;;;;4.67;2.33;;;;;;;;;;5009034;28;20106;-78
2022/06/05 00:58:46;;;;;;;3.33;2.03;;;;;;;;;;5025128;28;20565;-78
2022/06/05 01:01:12;;;;;;;3.85;2.22;;;;;;;;;;5019111;28;20029;-77
2022/06/05 01:03:37;;;;;;;4.55;2.30;;;;;;;;;;5019922;28;20769;-78
2022/06/05 01:06:03;;;;;;;4.32;2.33;;;;;;;;;;5013530;28;20044;-78
2022/06/05 01:08:29;;;;;;;3.45;2.08;;;;;;;;;;5006171;28;20040;-77
2022/06/05 01:11:00;;;;;;;4.88;2.78;;;;;;;;;;5020255;28;20641;-78
2022/06/05 01:13:37;;;;;;;4.72;2.10;;;;;;;;;;5032181;28;20048;-78
2022/06/05 01:16:21;;;;;;;;;;;;;;;;;;5035491;28;20788;-79
2022/06/05 01:18:50;;;;;;;4.07;1.90;;;;;;;;;;5036199;28;19952;-78
2022/06/05 01:21:53;;;;;;;4.15;2.53;;;;;;;;;;5016945;28;20555;-78
2022/06/05 01:24:56;;;;;;;4.93;2.38;;;;;;;;;;5012024;28;20041;-78
2022/06/05 01:27:28;;;;;;;5.32;2.63;;;;;;;;;;5013657;28;20038;-78
2022/06/05 01:29:59;;;;;;;5.30;2.63;;;;;;;;;;5004680;28;20038;-78
2022/06/05 01:32:31;;;;;;;5.40;2.53;;;;;;;;;;5011589;28;20392;-78
2022/06/05 01:35:01;;;;;;;5.18;2.30;;;;;;;;;;5013211;28;20053;-78
2022/06/05 01:37:42;;;;;;;4.30;2.35;;;;;;;;;;4996120;28;20610;-78
2022/06/05 01:40:12;;;;;;;4.70;2.33;;;;;;;;;;5013268;28;20042;-79
2022/06/05 01:42:41;;;;;;;5.13;2.42;;;;;;;;;;5010928;28;20554;-79
2022/06/05 01:45:27;;;;;;;7.45;3.03;;;;;;;;;;5027901;28;20033;-78
2022/06/05 01:47:54;;;;;;;4.95;2.67;;;;;;;;;;5011080;28;20039;-78
2022/06/05 01:50:25;;;;;;;6.85;2.90;;;;;;;;;;4995916;28;20470;-78
2022/06/05 01:53:04;;;;;;;4.95;2.75;;;;;;;;;;5017789;28;20120;-79
2022/06/05 01:55:48;;;;;;;4.60;2.95;;;;;;;;;;5014128;28;20048;-78
2022/06/05 01:58:15;;;;;;;4.15;2.40;;;;;;;;;;5013425;28;20033;-78
2022/06/05 02:00:41;;;;;;;5.63;3.30;;;;;;;;;;4999987;28;20045;-79
2022/06/05 02:03:10;;;;;;;3.95;2.47;;;;;;;;;;5009904;28;20891;-79
2022/06/05 02:05:42;;;;;;;4.43;2.63;;;;;;;;;;5017971;28;20048;-78
2022/06/05 02:08:18;;;;;;;5.35;2.85;;;;;;;;;;5012928;28;20041;-78
2022/06/05 02:11:01;;;;;;;4.63;2.60;;;;;;;;;;5005397;28;20528;-79
2022/06/05 02:13:27;;;;;;;3.88;2.45;;;;;;;;;;5004646;28;20802;-79
2022/06/05 02:15:55;;;;;;;5.30;3.15;;;;;;;;;;5017733;28;20034;-78
2022/06/05 02:18:21;;;;;;;4.53;2.47;;;;;;;;;;5000480;28;20432;-79
2022/06/05 02:20:47;;;;;;;4.28;2.55;;;;;;;;;;5012607;28;20112;-78
2022/06/05 02:23:21;;;;;;;3.92;2.47;;;;;;;;;;5007809;28;20605;-79
2022/06/05 02:25:47;;;;;;;4.82;2.58;;;;;;;;;;5018986;28;20601;-78
2022/06/05 02:28:15;;;;;;;5.93;3.33;;;;;;;;;;5022561;28;20034;-77
2022/06/05 02:31:00;;;;;;;5.45;3.05;;;;;;;;;;5000084;28;20033;-78
2022/06/05 02:33:32;;;;;;;6.03;2.95;;;;;;;;;;5019891;28;20163;-78
2022/06/05 02:36:15;;;;;;;4.18;2.67;;;;;;;;;;5027126;28;20395;-78
2022/06/05 02:38:52;;;;;;;4.80;2.60;;;;;;;;;;5036349;28;20550;-79
2022/06/05 02:41:40;;;;;;;6.03;2.93;;;;;;;;;;5011164;28;20513;-79
2022/06/05 02:44:29;;;;;;;5.55;3.00;;;;;;;;;;5004020;28;20091;-79
2022/06/05 02:47:29;;;;;;;4.28;2.90;;;;;;;;;;5015445;28;20049;-78
2022/06/05 02:50:03;;;;;;;4.90;3.03;;;;;;;;;;5015735;28;20693;-78
2022/06/05 02:52:31;;;;;;;4.88;3.00;;;;;;;;;;5018324;28;20486;-77
2022/06/05 02:55:03;;;;;;;6.07;3.17;;;;;;;;;;5015590;28;20046;-78
2022/06/05 02:57:33;;;;;;;6.65;3.35;;;;;;;;;;5015964;28;20120;-77
2022/06/05 02:59:58;;;;;;;4.97;2.95;;;;;;;;;;5008176;28;20061;-78
2022/06/05 03:05:08;;;;;;;5.75;3.53;;;;;;;;;;5019446;28;20047;-78
2022/06/05 03:07:34;;;;;;;6.32;3.58;;;;;;;;;;5019941;28;20030;-78
2022/06/05 03:09:59;;;;;;;5.03;3.00;;;;;;;;;;5020947;28;20519;-78
2022/06/05 03:12:25;;;;;;;5.63;3.40;;;;;;;;;;5016775;28;20037;-78
2022/06/05 03:14:50;;;;;;;6.20;3.50;;;;;;;;;;5021254;28;20038;-79
2022/06/05 03:17:15;;;;;;;7.00;3.53;;;;;;;;;;5007110;28;20033;-78
2022/06/05 03:19:42;;;;;;;6.25;3.20;;;;;;;;;;5008012;28;20041;-79
2022/06/05 03:22:07;;;;;;;4.95;3.00;;;;;;;;;;5014230;28;20037;-78
2022/06/05 03:24:33;;;;;;;5.55;3.30;;;;;;;;;;5012165;28;20060;-78
2022/06/05 03:26:58;;;;;;;6.05;2.90;;;;;;;;;;5007236;28;20068;-78
2022/06/05 03:29:24;;;;;;;5.65;3.30;;;;;;;;;;5019077;28;20041;-78
2022/06/05 03:31:49;;;;;;;6.70;3.08;;;;;;;;;;5005984;28;20036;-79
2022/06/05 03:34:16;;;;;;;5.65;2.97;;;;;;;;;;5005455;28;20103;-78
2022/06/05 03:36:42;;;;;;;5.53;3.28;;;;;;;;;;5023744;28;20048;-78
2022/06/05 03:39:07;;;;;;;7.47;3.88;;;;;;;;;;5015796;28;20397;-79
2022/06/05 03:41:32;;;;;;;6.15;3.30;;;;;;;;;;5023407;28;20060;-79
2022/06/05 03:44:03;;;;;;;5.68;3.17;;;;;;;;;;4998144;28;20041;-78
2022/06/05 03:46:29;;;;;;;4.75;2.92;;;;;;;;;;5013027;28;20513;-78
2022/06/05 03:48:54;;;;;;;6.00;3.35;;;;;;;;;;5003281;28;20045;-79
2022/06/05 03:51:21;;;;;;;4.53;2.63;;;;;;;;;;5015775;28;20443;-78
2022/06/05 03:53:47;;;;;;;5.05;3.17;;;;;;;;;;5016436;28;20486;-79
2022/06/05 03:56:16;;;;;;;7.28;3.60;;;;;;;;;;5015881;28;20038;-78
2022/06/05 03:58:42;;;;;;;5.13;3.22;;;;;;;;;;5001177;28;20042;-79
2022/06/05 04:01:11;;;;;;;5.18;3.20;;;;;;;;;;5017051;28;20607;-78
2022/06/05 04:03:37;;;;;;;5.03;3.15;;;;;;;;;;5018122;28;20044;-78
2022/06/05 04:06:10;;;;;;;5.18;3.38;;;;;;;;;;5005039;28;20704;-79
2022/06/05 04:08:36;;;;;;;4.90;3.00;;;;;;;;;;4998830;28;20165;-78
2022/06/05 04:11:05;;;;;;;5.45;3.38;;;;;;;;;;5005733;28;20102;-79
2022/06/05 04:13:31;;;;;;;7.50;3.10;;;;;;;;;;5006678;28;20071;-79
2022/06/05 04:15:56;;;;;;;5.85;3.20;;;;;;;;;;5014811;28;20041;-80
2022/06/05 04:18:21;;;;;;;5.32;3.08;;;;;;;;;;5017071;28;20025;-79
2022/06/05 04:20:47;;;;;;;6.57;3.38;;;;;;;;;;5022985;28;20033;-79
2022/06/05 04:23:12;;;;;;;9.75;3.72;;;;;;;;;;4998501;28;20056;-78
2022/06/05 04:25:42;;;;;;;6.18;3.53;;;;;;;;;;5016330;28;20032;-78
2022/06/05 04:28:08;;;;;;;6.35;3.10;;;;;;;;;;5015523;28;20041;-78
2022/06/05 04:30:40;;;;;;;6.75;3.80;;;;;;;;;;5015135;28;20476;-78
2022/06/05 04:33:06;;;;;;;5.15;2.65;;;;;;;;;;5016573;28;20036;-78
2022/06/05 04:35:32;;;;;;;6.30;3.30;;;;;;;;;;5022979;28;20576;-79
2022/06/05 04:37:58;;;;;;;4.78;3.10;;;;;;;;;;4999472;28;20041;-78
2022/06/05 04:40:24;;;;;;;5.32;3.10;;;;;;;;;;5014066;28;20037;-78
2022/06/05 04:42:49;;;;;;;5.72;3.20;;;;;;;;;;5008712;28;20068;-78
2022/06/05 04:45:15;;;;;;;6.15;2.97;;;;;;;;;;5005593;28;20042;-79
2022/06/05 04:47:40;;;;;;;6.45;3.17;;;;;;;;;;5013915;28;20037;-77
2022/06/05 04:50:07;;;;;;;4.65;2.97;;;;;;;;;;5021631;28;20497;-79
2022/06/05 04:52:38;;;;;;;6.67;3.10;;;;;;;;;;5026086;28;20047;-78
2022/06/05 04:55:07;;;;;;;5.63;3.17;;;;;;;;;;4998617;28;20038;-78
2022/06/05 04:57:37;;;;;;;4.85;2.92;;;;;;;;;;5026122;28;20504;-78
2022/06/05 05:00:04;;;;;;;5.47;3.55;;;;;;;;;;4996909;28;20061;-78
2022/06/05 05:02:32;;;;;;;4.80;2.75;;;;;;;;;;5000546;28;20500;-79
2022/06/05 05:04:58;;;;;;;5.95;3.55;;;;;;;;;;5002907;28;20120;-78
2022/06/05 05:07:23;;;;;;;4.97;2.88;;;;;;;;;;5023717;28;20487;-79
2022/06/05 05:09:50;;;;;;;5.07;3.08;;;;;;;;;;5021619;28;20032;-79
2022/06/05 05:12:16;;;;;;;5.60;2.90;;;;;;;;;;5025172;28;20037;-78
2022/06/05 05:14:41;;;;;;;4.47;2.83;;;;;;;;;;5009684;28;20539;-78
2022/06/05 05:17:07;;;;;;;5.10;2.70;;;;;;;;;;5014372;28;20034;-78
2022/06/05 05:19:33;;;;;;;6.40;3.35;;;;;;;;;;5017254;28;20037;-81
2022/06/05 05:21:59;;;;;;;6.00;3.10;;;;;;;;;;5019966;28;20039;-90
2022/06/05 05:24:25;;;;;;;5.18;2.85;;;;;;;;;;5007061;28;20124;-88
2022/06/05 05:26:50;;;;;;;5.53;2.95;;;;;;;;;;5013977;28;20389;-87
2022/06/05 05:29:15;;;;;;;6.32;3.28;;;;;;;;;;5019993;28;20111;-87
2022/06/05 05:31:42;;;;;;;5.10;3.03;;;;;;;;;;5009140;28;20462;-86
2022/06/05 05:34:11;;;;;;;5.07;3.00;;;;;;;;;;5009107;28;20041;-84
2022/06/05 05:36:37;;;;;;;5.95;3.00;;;;;;;;;;5008937;28;20512;-85
2022/06/05 05:42:05;;;;;;;4.95;2.95;;;;;;;;;;5027452;28;20035;-87
2022/06/05 05:44:47;;;;;;;4.55;2.72;;;;;;;;;;5009032;28;20158;-86
2022/06/05 05:47:17;;;;;;;5.95;3.08;;;;;;;;;;5018872;28;20091;-84
2022/06/05 05:49:46;;;;;;;4.68;2.67;;;;;;;;;;5002119;28;20045;-82
2022/06/05 05:52:12;;;;;;;4.43;2.70;;;;;;;;;;5018145;28;20049;-81
2022/06/05 05:54:38;;;;;;;6.07;2.90;;;;;;;;;;5000981;28;20039;-81
2022/06/05 05:57:04;;;;;;;5.65;3.33;;;;;;;;;;5002854;28;20033;-83
2022/06/05 05:59:30;;;;;;;5.75;3.10;;;;;;;;;;5018424;28;20119;-87
2022/06/05 06:01:55;;;;;;;6.20;2.90;;;;;;;;;;5022169;28;20552;-87
2022/06/05 06:04:21;;;;;;;8.75;3.40;;;;;;;;;;5019961;28;20080;-85
2022/06/05 06:06:49;;;;;;;6.90;2.67;;;;;;;;;;5018953;28;20033;-86
2022/06/05 06:09:15;;;;;;;6.00;3.00;;;;;;;;;;5020164;28;20573;-85
2022/06/05 06:11:40;;;;;;;4.15;2.30;;;;;;;;;;5007159;28;22761;-85
2022/06/05 06:14:06;;;;;;;5.03;2.88;;;;;;;;;;5007666;28;20033;-86
2022/06/05 06:16:31;;;;;;;6.95;2.92;;;;;;;;;;5001313;28;20030;-87
2022/06/05 06:18:57;;;;;;;5.30;2.80;;;;;;;;;;5016809;28;20052;-86
2022/06/05 06:21:23;;;;;;;4.93;3.00;;;;;;;;;;5022853;28;20139;-86
2022/06/05 06:23:49;;;;;;;4.22;2.70;;;;;;;;;;5025492;28;20033;-84
2022/06/05 06:26:14;;;;;;;4.55;2.95;;;;;;;;;;5003930;28;20028;-84
2022/06/05 06:28:40;;;;;;;4.80;2.97;;;;;;;;;;5021503;28;20504;-85
2022/06/05 06:31:11;;;;;;;3.97;2.60;;;;;;;;;;5019209;28;20496;-84
2022/06/05 06:33:38;;;;;;;5.72;2.95;;;;;;;;;;5002793;28;20040;-84
2022/06/05 06:36:06;;;;;;;5.47;3.17;;;;;;;;;;5011135;28;20034;-85
2022/06/05 06:38:32;;;;;;;5.28;2.90;;;;;;;;;;5004134;28;20029;-84
2022/06/05 06:41:05;;;;;;;6.05;3.22;;;;;;;;;;5016036;28;20039;-85
2022/06/05 06:43:32;;;;;;;5.97;2.88;;;;;;;;;;4999659;28;20079;-85
2022/06/05 06:45:58;;;;;;;6.53;2.90;;;;;;;;;;5006869;28;20511;-85
2022/06/05 06:48:27;;;;;;;5.05;2.67;;;;;;;;;;5009410;28;20488;-85
2022/06/05 06:50:53;;;;;;;5.90;2.80;;;;;;;;;;5001854;28;20029;-85
2022/06/05 06:53:19;;;;;;;4.88;2.85;;;;;;;;;;5004320;28;20037;-85
2022/06/05 06:55:45;;;;;;;8.23;3.08;;;;;;;;;;5023336;28;20033;-85
2022/06/05 06:58:10;;;;;;;5.00;2.75;;;;;;;;;;5035299;28;20088;-85
2022/06/05 07:00:36;;;;;;;6.80;3.00;;;;;;;;;;5005204;28;20039;-84
2022/06/05 07:03:01;;;;;;;5.65;2.80;;;;;;;;;;5020434;28;20030;-85
2022/06/05 07:05:26;;;;;;;4.25;2.60;;;;;;;;;;5026726;28;20666;-81
2022/06/05 07:07:52;;;;;;;4.43;2.50;;;;;;;;;;5012572;28;20367;-81
2022/06/05 07:10:17;;;;;;;6.88;2.90;;;;;;;;;;5011118;28;20498;-82
2022/06/05 07:12:43;;;;;;;4.93;2.90;;;;;;;;;;5025579;28;20036;-82
2022/06/05 07:15:08;;;;;;;4.22;2.67;;;;;;;;;;5014986;28;20041;-82
2022/06/05 07:17:34;;;;;;;4.07;2.45;;;;;;;;;;5021757;28;20033;-81
2022/06/05 07:20:02;;;;;;;4.93;2.80;;;;;;;;;;5026800;28;20445;-86
2022/06/05 07:22:31;;;;;;;4.03;2.55;;;;;;;;;;5016393;28;20712;-84
2022/06/05 07:24:56;;;;;;;5.57;2.70;;;;;;;;;;5000923;28;20052;-84
2022/06/05 07:27:22;;;;;;;4.15;2.58;;;;;;;;;;5022019;28;20029;-84
2022/06/05 07:29:47;;;;;;;4.38;2.63;;;;;;;;;;5022321;28;20151;-85
2022/06/05 07:32:13;;;;;;;4.47;2.50;;;;;;;;;;5021315;28;20048;-85
2022/06/05 07:34:39;;;;;;;4.60;2.58;;;;;;;;;;5023337;28;20509;-86
2022/06/05 07:37:05;;;;;;;5.15;2.70;;;;;;;;;;5024859;28;20072;-86
2022/06/05 07:39:33;;;;;;;4.22;2.45;;;;;;;;;;5011836;28;20038;-92
2022/06/05 07:41:58;;;;;;;5.10;2.70;;;;;;;;;;5004376;28;20524;-86
2022/06/05 07:44:27;;;;;;;4.68;2.53;;;;;;;;;;5011046;28;20033;-87
2022/06/05 07:46:53;;;;;;;4.32;2.65;;;;;;;;;;4992510;28;20508;-86
2022/06/05 07:49:18;;;;;;;4.25;2.05;;;;;;;;;;5002940;28;20042;-87
2022/06/05 07:54:31;;;;;;;4.00;2.15;;;;;;;;;;5021440;28;20036;-87
2022/06/05 07:57:05;;;;;;;5.28;2.47;;;;;;;;;;5003774;28;20065;-86
2022/06/05 07:59:33;;;;;;;3.85;2.15;;;;;;;;;;5000531;28;20033;-87
2022/06/05 08:02:03;;;;;;;4.90;2.30;;;;;;;;;;5008334;28;20064;-87
2022/06/05 08:04:29;;;;;;;4.38;2.40;;;;;;;;;;5006312;28;20041;-88
2022/06/05 08:06:57;;;;;;;3.90;2.10;;;;;;;;;;5028544;28;20042;-86
2022/06/05 08:09:23;;;;;;;4.97;2.10;;;;;;;;;;5004427;28;20033;-86
2022/06/05 08:11:48;;;;;;;3.35;1.98;;;;;;;;;;5024472;28;20079;-86
2022/06/05 08:14:16;;;;;;;3.92;2.10;;;;;;;;;;5010350;28;20033;-86
2022/06/05 08:16:43;;;;;;;5.28;2.13;;;;;;;;;;5020041;28;20056;-86
2022/06/05 08:19:14;;;;;;;4.18;2.05;;;;;;;;;;5004964;28;20051;-86
2022/06/05 08:21:40;;;;;;;3.78;2.00;;;;;;;;;;5008808;28;20488;-88
2022/06/05 08:24:06;;;;;;;3.17;1.80;;;;;;;;;;5013914;28;20042;-86
2022/06/05 08:26:31;;;;;;;3.65;2.00;;;;;;;;;;5022005;28;20029;-86
2022/06/05 08:28:57;;;;;;;3.95;2.20;;;;;;;;;;5026406;28;20044;-86
2022/06/05 08:31:22;;;;;;;3.58;1.88;;;;;;;;;;5008050;28;20670;-87
2022/06/05 08:33:47;;;;;;;3.70;1.92;;;;;;;;;;5010114;28;20040;-87
2022/06/05 08:36:13;;;;;;;3.60;1.75;;;;;;;;;;5002339;28;20132;-85
2022/06/05 08:41:28;;;;;;;3.85;1.60;;;;;;;;;;5027470;28;20388;-82
2022/06/05 08:44:24;;;;;;;3.17;1.60;;;;;;;;;;5035422;28;20114;-78
2022/06/05 08:46:57;;;;;;;3.30;1.58;;;;;;;;;;5038597;28;20041;-77
2022/06/05 08:49:44;;;;;;;3.35;1.55;;;;;;;;;;5005440;28;20049;-79
2022/06/05 08:52:33;;;;;;;5.00;1.35;;;;;;;;;;5035041;28;20045;-79
2022/06/05 08:55:10;;;;;;;3.58;1.65;;;;;;;;;;5025720;28;20049;-79
2022/06/05 08:57:45;;;;;;;4.35;1.70;;;;;;;;;;5014563;28;20116;-79
2022/06/05 09:00:40;;;;;;;2.70;1.52;;;;;;;;;;5005557;28;20042;-78
2022/06/05 09:03:24;;;;;;;3.75;1.40;;;;;;;;;;4997002;28;20041;-78
2022/06/05 09:05:54;;;;;;;2.53;1.25;;;;;;;;;;5021389;28;20467;-82
2022/06/05 09:08:23;;;;;;;2.72;1.35;;;;;;;;;;5006791;28;20057;-79
2022/06/05 09:10:51;;;;;;;3.30;1.30;;;;;;;;;;5006508;28;20049;-80
2022/06/05 09:13:42;;;;;;;2.53;1.20;;;;;;;;;;5005867;28;20050;-78
2022/06/05 09:16:14;;;;;;;3.15;1.20;;;;;;;;;;5001424;28;20460;-79
2022/06/05 09:18:45;;;;;;;3.08;1.40;;;;;;;;;;5014644;28;20065;-79
2022/06/05 09:21:25;;;;;;;2.38;0.80;;;;;;;;;;5005010;28;20045;-78
2022/06/05 09:23:54;;;;;;;2.40;1.17;;;;;;;;;;5012812;28;20041;-79
2022/06/05 09:26:34;;;;;;;2.17;1.05;;;;;;;;;;5020087;28;20060;-80
2022/06/05 09:29:33;;;;;;;2.03;1.00;;;;;;;;;;5013272;28;20107;-92
2022/06/05 09:32:28;;;;;;;2.70;1.40;;;;;;;;;;5004719;28;20132;-79
2022/06/05 09:34:57;;;;;;;2.55;1.00;;;;;;;;;;4999955;28;20044;-78
2022/06/05 09:37:37;;;;;;;3.08;1.20;;;;;;;;;;5015522;28;20037;-79
2022/06/05 09:40:14;;;;;;;3.47;1.27;;;;;;;;;;4996880;28;20128;-79
2022/06/05 09:43:15;;;;;;;2.50;1.02;;;;;;;;;;5015887;28;20411;-84
2022/06/05 09:45:52;;;;;;;2.15;0.98;;;;;;;;;;5003038;28;20429;-85
2022/06/05 09:48:27;;;;;;;2.97;1.08;;;;;;;;;;5013784;28;20056;-84
2022/06/05 09:50:53;;;;;;;2.45;1.10;;;;;;;;;;5021321;28;20061;-84
2022/06/05 09:53:26;;;;;;;2.45;0.95;;;;;;;;;;5001776;28;20099;-85
2022/06/05 09:56:02;;;;;;;2.13;0.98;;;;;;;;;;5006769;28;20042;-85
2022/06/05 09:58:52;;;;;;;2.50;1.02;;;;;;;;;;5017276;28;20049;-84
2022/06/05 10:01:49;;;;;;;2.53;0.93;;;;;;;;;;5025359;28;20116;-86
2022/06/05 10:04:14;;;;;;;2.28;0.90;;;;;;;;;;5025118;28;20394;-85
2022/06/05 10:06:42;;;;;;;4.20;1.20;;;;;;;;;;5014727;28;20030;-84
2022/06/05 10:09:13;;;;;;;3.63;1.00;;;;;;;;;;5019149;28;20622;-84
2022/06/05 10:11:48;;;;;;;3.08;1.15;;;;;;;;;;5008009;28;20481;-85
2022/06/05 10:14:25;;;;;;;2.72;1.10;;;;;;;;;;5034019;28;20358;-84
2022/06/05 10:16:57;;;;;;;3.45;1.30;;;;;;;;;;5021732;28;20076;-82
2022/06/05 10:19:22;;;;;;;2.35;1.20;;;;;;;;;;5020134;28;20037;-84
2022/06/05 10:22:05;;;;;;;2.40;1.20;;;;;;;;;;5035866;28;20033;-84
2022/06/05 10:24:44;;;;;;;1.95;1.10;;;;;;;;;;5018413;28;20039;-84
2022/06/05 10:27:12;;;;;;;2.58;1.30;;;;;;;;;;5009033;28;20065;-85
2022/06/05 10:29:44;;;;;;;1.92;1.05;;;;;;;;;;5002949;28;20163;-84
2022/06/05 10:32:33;;;;;;;4.63;1.38;;;;;;;;;;5021040;28;20132;-86
2022/06/05 10:35:01;;;;;;;3.10;1.30;;;;;;;;;;5026514;28;20061;-85
2022/06/05 10:37:34;;;;;;;3.33;1.50;;;;;;;;;;5041484;28;20129;-85
2022/06/05 10:40:08;;;;;;;3.20;1.40;;;;;;;;;;5030365;28;20132;-85
2022/06/05 10:42:54;;;;;;;3.67;1.50;;;;;;;;;;5019804;28;20037;-85
2022/06/05 10:45:41;;;;;;;3.65;1.45;;;;;;;;;;5034483;28;20632;-85
2022/06/05 10:48:11;;;;;;;2.33;1.40;;;;;;;;;;5014594;28;20531;-85
2022/06/05 10:50:52;;;;;;;3.65;1.65;;;;;;;;;;5009237;28;20034;-85
2022/06/05 10:53:21;;;;;;;2.08;1.15;;;;;;;;;;5002477;28;20029;-84
2022/06/05 10:55:53;;;;;;;3.60;1.60;;;;;;;;;;5018615;28;20038;-83
2022/06/05 10:58:25;;;;;;;2.50;1.30;;;;;;;;;;5018384;28;20037;-85
2022/06/05 11:00:50;;;;;;;3.10;1.40;;;;;;;;;;5024500;28;20538;-85
2022/06/05 11:03:36;;;;;;;2.70;1.30;;;;;;;;;;5027348;28;20030;-85
2022/06/05 11:06:19;;;;;;;3.65;1.50;;;;;;;;;;5024404;28;20143;-83
2022/06/05 11:09:08;;;;;;;3.80;1.33;;;;;;;;;;5007957;28;20474;-82
2022/06/05 11:14:46;;;;;;;2.45;1.38;;;;;;;;;;5005294;28;20040;-84
2022/06/05 11:17:24;;;;;;;2.72;1.42;;;;;;;;;;5003302;28;20044;-83
2022/06/05 11:20:02;;;;;;;3.00;1.55;;;;;;;;;;5022994;28;20404;-85
2022/06/05 11:22:29;;;;;;;2.17;1.30;;;;;;;;;;5025769;28;20036;-85
2022/06/05 11:25:10;;;;;;;4.45;1.35;;;;;;;;;;5004773;28;20502;-83
2022/06/05 11:27:53;;;;;;;2.20;1.20;;;;;;;;;;5007995;28;20548;-86
2022/06/05 11:31:01;;;;;;;3.00;1.33;;;;;;;;;;5028816;28;20390;-85
2022/06/05 11:33:28;;;;;;;2.25;1.30;;;;;;;;;;5017290;28;20488;-82
2022/06/05 11:36:09;;;;;;;2.80;1.40;;;;;;;;;;5019670;28;20035;-85
2022/06/05 11:39:05;;;;;;;3.60;1.80;;;;;;;;;;5033960;28;20477;-83
2022/06/05 11:41:41;;;;;;;3.10;1.40;;;;;;;;;;5014124;28;20083;-84
2022/06/05 11:44:18;;;;;;;3.20;1.60;;;;;;;;;;5016803;28;20580;-85
2022/06/05 11:47:10;;;;;;;2.08;1.27;;;;;;;;;;5014436;28;20053;-84
2022/06/05 11:49:48;;;;;;;3.38;1.30;;;;;;;;;;5024976;28;20041;-86
2022/06/05 11:52:20;;;;;;;2.72;1.40;;;;;;;;;;5017822;28;20044;-85
2022/06/05 11:54:52;;;;;;;3.08;1.42;;;;;;;;;;5018329;28;20034;-86
2022/06/05 11:57:38;;;;;;;2.83;1.52;;;;;;;;;;5022589;28;20488;-85
2022/06/05 12:00:20;;;;;;;3.95;1.52;;;;;;;;;;5035464;28;20444;-83
2022/06/05 12:02:51;;;;;;;3.47;2.10;;;;;;;;;;4998526;28;20405;-82
2022/06/05 12:05:31;;;;;;;3.03;1.75;;;;;;;;;;5016939;28;20136;-83
2022/06/05 12:08:12;;;;;;;2.95;1.80;;;;;;;;;;5024395;28;20125;-84
2022/06/05 12:10:52;;;;;;;4.40;2.25;;;;;;;;;;5002877;28;20037;-85
2022/06/05 12:13:46;;;;;;;3.60;2.20;;;;;;;;;;5000855;28;20053;-85
2022/06/05 12:16:40;;;;;;;3.92;2.00;;;;;;;;;;5017386;28;21882;-86
2022/06/05 12:19:30;;;;;;;3.55;2.05;;;;;;;;;;5020326;28;20386;-84
2022/06/05 12:22:08;;;;;;;3.10;1.77;;;;;;;;;;5012663;28;20514;-86
2022/06/05 12:24:45;;;;;;;3.28;1.75;;;;;;;;;;5019359;28;20160;-83
2022/06/05 12:27:15;;;;;;;3.45;2.05;;;;;;;;;;5000709;28;20044;-85
2022/06/05 12:29:47;;;;;;;4.57;1.90;;;;;;;;;;5008841;28;20057;-85
2022/06/05 12:32:21;;;;;;;2.45;1.50;;;;;;;;;;5014860;28;20030;-83
2022/06/05 12:34:51;;;;;;;3.30;1.90;;;;;;;;;;5019911;28;20037;-83
2022/06/05 12:37:19;;;;;;;3.70;1.98;;;;;;;;;;5003559;28;20109;-86
2022/06/05 12:39:45;;;;;;;;;;;;;;;;;;5009957;28;20037;-84
2022/06/05 12:42:32;;;;;;;5.18;2.30;;;;;;;;;;5015305;28;20667;-83
2022/06/05 12:44:59;;;;;;;3.72;2.05;;;;;;;;;;5023051;28;20045;-83
2022/06/05 12:47:33;;;;;;;4.05;2.30;;;;;;;;;;5018984;28;20058;-85
2022/06/05 12:50:08;;;;;;;3.65;2.45;;;;;;;;;;5015844;28;20056;-86
2022/06/05 12:53:02;;;;;;;3.92;2.30;;;;;;;;;;5016733;28;20066;-85
2022/06/05 12:55:38;;;;;;;4.50;2.60;;;;;;;;;;5029726;28;20469;-84
2022/06/05 12:58:10;;;;;;;4.10;2.38;;;;;;;;;;5007369;28;20044;-85
2022/06/05 13:01:02;;;;;;;3.97;2.30;;;;;;;;;;5015789;28;20049;-84
2022/06/05 13:03:50;;;;;;;5.78;2.47;;;;;;;;;;4984453;28;20037;-85
2022/06/05 13:06:36;;;;;;;3.67;2.30;;;;;;;;;;5014127;28;20038;-84
2022/06/05 13:09:26;;;;;;;4.13;2.47;;;;;;;;;;5014979;28;20041;-86
2022/06/05 13:12:18;;;;;;;4.85;2.90;;;;;;;;;;5017148;28;20396;-82
2022/06/05 13:14:51;;;;;;;5.07;2.70;;;;;;;;;;5017119;28;20030;-84
2022/06/05 13:17:32;;;;;;;4.72;2.55;;;;;;;;;;5013991;28;20401;-83
2022/06/05 13:20:39;;;;;;;4.13;2.65;;;;;;;;;;5015658;28;20045;-85
2022/06/05 13:23:20;;;;;;;3.63;2.60;;;;;;;;;;5016748;28;20060;-83
2022/06/05 13:25:59;;;;;;;3.55;2.53;;;;;;;;;;5014858;28;20049;-85
2022/06/05 13:28:32;;;;;;;5.32;2.50;;;;;;;;;;5006570;28;20033;-85
2022/06/05 13:31:19;;;;;;;3.22;2.20;;;;;;;;;;5014215;28;20504;-82
2022/06/05 13:33:44;;;;;;;3.50;2.22;;;;;;;;;;5017200;28;20529;-82
2022/06/05 13:36:20;;;;;;;3.78;2.60;;;;;;;;;;5014908;28;20068;-84
2022/06/05 13:38:53;;;;;;;3.67;2.15;;;;;;;;;;5004028;28;20634;-81
2022/06/05 13:41:26;;;;;;;4.07;2.58;;;;;;;;;;5014943;28;20191;-85
2022/06/05 13:44:16;;;;;;;3.20;2.30;;;;;;;;;;4997650;28;20029;-85
2022/06/05 13:46:57;;;;;;;3.45;2.17;;;;;;;;;;5006761;28;20484;-84
2022/06/05 13:49:45;;;;;;;3.70;2.45;;;;;;;;;;5023397;28;20095;-83
2022/06/05 13:52:19;;;;;;;3.70;2.40;;;;;;;;;;5014527;28;20034;-86
2022/06/05 13:55:01;;;;;;;3.47;2.50;;;;;;;;;;5015263;28;20033;-83
2022/06/05 13:57:34;;;;;;;4.88;2.40;;;;;;;;;;5013277;28;20662;-85
2022/06/05 14:00:05;;;;;;;3.55;2.33;;;;;;;;;;5015855;28;20382;-85
2022/06/05 14:02:43;;;;;;;4.10;2.50;;;;;;;;;;5000469;28;20033;-83
2022/06/05 14:05:21;;;;;;;4.78;2.88;;;;;;;;;;5005368;28;20137;-85
2022/06/05 14:07:52;;;;;;;4.25;2.75;;;;;;;;;;5010418;28;20501;-84
2022/06/05 14:10:25;;;;;;;4.03;2.70;;;;;;;;;;5025101;28;20049;-82
2022/06/05 14:12:59;;;;;;;4.10;3.10;;;;;;;;;;5020858;28;20052;-84
2022/06/05 14:15:39;;;;;;;4.47;2.88;;;;;;;;;;5005469;28;20033;-85
2022/06/05 14:18:05;;;;;;;4.30;2.92;;;;;;;;;;5018070;28;20206;-85
2022/06/05 14:20:35;;;;;;;4.60;3.00;;;;;;;;;;5020154;28;20116;-84
2022/06/05 14:23:15;;;;;;;4.55;3.03;;;;;;;;;;5011617;28;20435;-83
2022/06/05 14:25:48;;;;;;;6.03;2.92;;;;;;;;;;5036143;28;20030;-89
2022/06/05 14:28:15;;;;;;;4.28;2.70;;;;;;;;;;5012574;28;20037;-88
2022/06/05 14:31:18;;;;;;;5.07;3.15;;;;;;;;;;4995422;28;20478;-88
2022/06/05 14:33:55;;;;;;;4.30;3.10;;;;;;;;;;4992283;28;20496;-91
2022/06/05 14:36:47;;;;;;;4.28;3.00;;;;;;;;;;5009201;28;20091;-89
2022/06/05 14:39:21;;;;;;;5.85;3.17;;;;;;;;;;5001235;28;20845;-89
2022/06/05 14:42:10;;;;;;;4.05;2.90;;;;;;;;;;5009320;28;20753;-88
2022/06/05 14:44:39;;;;;;;3.90;2.90;;;;;;;;;;5019515;28;20034;-88
2022/06/05 14:47:37;;;;;;;4.30;3.30;;;;;;;;;;5003329;28;20029;-88
2022/06/05 14:50:05;;;;;;;4.75;2.88;;;;;;;;;;5004687;28;20744;-90
2022/06/05 14:52:41;;;;;;;4.18;2.78;;;;;;;;;;5022436;28;20034;-90
2022/06/05 14:58:29;;;;;;;4.78;2.70;;;;;;;;;;5024918;28;20045;-91
2022/06/05 15:01:11;;;;;;;4.13;2.90;;;;;;;;;;5010373;28;20050;-86
2022/06/05 15:03:55;;;;;;;3.65;2.80;;;;;;;;;;5004577;28;20033;-90
2022/06/05 15:06:26;;;;;;;4.18;2.85;;;;;;;;;;5028764;28;20992;-88
2022/06/05 15:09:00;;;;;;;5.22;3.30;;;;;;;;;;5010602;28;20481;-90
2022/06/05 15:11:45;;;;;;;6.80;3.00;;;;;;;;;;5036529;28;20548;-89
2022/06/05 15:14:35;;;;;;;4.70;2.90;;;;;;;;;;5023775;28;20405;-90
2022/06/05 15:17:29;;;;;;;3.88;2.92;;;;;;;;;;5002654;28;20091;-85
2022/06/05 15:19:56;;;;;;;4.22;2.90;;;;;;;;;;5036785;28;20045;-87
2022/06/05 15:22:38;;;;;;;4.35;3.08;;;;;;;;;;5018666;28;20036;-87
2022/06/05 15:25:18;;;;;;;4.15;2.88;;;;;;;;;;5021457;28;20496;-89
2022/06/05 15:28:04;;;;;;;5.40;2.92;;;;;;;;;;5005795;28;20037;-87
2022/06/05 15:30:34;;;;;;;4.20;2.90;;;;;;;;;;5031242;28;20033;-91
2022/06/05 15:33:17;;;;;;;4.70;2.70;;;;;;;;;;5007466;28;20453;-84
2022/06/05 15:36:07;;;;;;;3.80;2.72;;;;;;;;;;5013859;28;20038;-88